Terminal Aerodrome Forecast
Issued by NWS

Home | Current Version | Previous Version | Text Only | Print | Product List | Glossary On
Versions: 1 2 3 4 5 6 7 8 9 10 11 12 13 14 15 16 17 18 19 20 21 22 23 24 25 26 27 28
000
FTUS45 KLKN 211100
TAFTPH
TAF
KTPH 211120Z 2112/2212 01010KT P6SM SCT200
     FM211500 34010G18KT P6SM VCTS SCT100CB BKN200
      TEMPO 2120/2124 -TSRA SCT060CB BKN090
     FM220000 33010G18KT P6SM -TSRA BKN080CB
     FM220600 01010KT P6SM VCSH SCT100=

USA.gov is the U.S. government's official web portal to all federal, state and local government web resources and services.